気象予報士の航空気象 近畿まで梅雨いり

*All archives   *Admin

スポンサーサイト

上記の広告は1ヶ月以上更新のないブログに表示されています。
新しい記事を書く事で広告が消せます。
--:--  |  スポンサー広告  |  EDIT  |  Top↑

2010.06.13 (Sun)

近畿まで梅雨いり

梅雨入り近畿東海



RJOO 122100Z 07010KT 9999 FEW025 SCT100 OVC150 22/15 Q1012 RMK 1CU025 4AC100 8AS150 A2991


RJOO 122200Z 07010KT 9999 -RA FEW025 SCT100 OVC120 22/15 Q1013 RMK 1CU025 4AC100 8AS120 A2992


大阪は午前7時から雨。


RJGG 130100Z 12015KT 9999 FEW015 SCT020 BKN/// 25/17 Q1014 NOSIG


RJGG 130130Z 13018KT 9999 VCSH FEW015 SCT025 BKN040 24/17 Q1014 NOSIG


名古屋は10時半から雨。


入梅発表。


関東は明日の朝から雨が降って、入梅でしょう。


 
ブログランキングに参加しています。
にほんブログ村 環境ブログ 天気・気象学へ
にほんブログ村
応援クリックをおねがします。


以下、アフィリエイトサイトです。




スポンサーサイト
23:04  |  気象・天気  |  TB(0)  |  CM(0)  |  EDIT  |  Top↑

コメントを投稿する


 管理者だけに表示  (非公開コメント投稿可能)

▲PageTop

この記事のトラックバックURL

→http://weathereucalyptus.blog115.fc2.com/tb.php/515-425f06d7
この記事にトラックバックする(FC2ブログユーザー)

この記事へのトラックバック

▲PageTop

 | BLOGTOP | 
上記広告は1ヶ月以上更新のないブログに表示されています。新しい記事を書くことで広告を消せます。